CMA CGM Columba — 2DBC9 — position and weather

sailwx.info

Track history (hours):
 
Tides and Currents Weather Stations Pressure Air Temp Water Temp Dewpoint Dewpoint Depression Visibility Wind Speed Wind Dir Waves Ship Positions

CMA CGM Columba

Last reported at 2017-May-15 19:20 UTC. Time now 2017-May-30 13:02 UTC.
Position N 22°20' E 114°07'.
Warning: this ship's position is 14 days out of date.

Length 363 m; draft 11.5 m.

Type: Ship (hazmat cat A). MMSI: 235077448.

Date/timePositionNaut miles runAvg speedWind from/ knotsBaromVisibWave heightAir tempDewpointWater temp
2017-May-15 19:20N 22°20' E 114°07'25113.6
2017-May-15 00:51N 24°03' E 118°16'1114.6
2017-May-15 00:07N 24°14' E 118°16'216.6
2017-May-15 00:00N 24°15' E 118°15'815.7
2017-May-14 23:30N 24°21' E 118°09'611.3
2017-May-14 23:01N 24°25' E 118°05'3 6.8
2017-May-14 22:31N 24°27' E 118°02'0 0.1
2017-May-14 22:00N 24°26' E 118°02'0 0.1
2017-May-14 21:27N 24°26' E 118°02'0 0.2
2017-May-14 20:57N 24°26' E 118°02'0 0.6
2017-May-14 20:30N 24°27' E 118°02'0 0.8
2017-May-14 20:00N 24°26' E 118°02'0 0.1
2017-May-14 19:30N 24°26' E 118°02'0 0.3
2017-May-14 19:00N 24°27' E 118°02'0 0.0
2017-May-14 18:30N 24°27' E 118°02'0 0.1
2017-May-14 18:00N 24°27' E 118°02'0 0.1
2017-May-14 17:30N 24°26' E 118°02'0 0.1
2017-May-14 17:00N 24°26' E 118°02'0 0.3
2017-May-14 16:30N 24°26' E 118°02'0 0.2
2017-May-14 16:00N 24°26' E 118°02'0 0.4
2017-May-14 15:30N 24°26' E 118°02'0 0.2
2017-May-14 15:00N 24°26' E 118°02'0 0.2
2017-May-14 14:28N 24°27' E 118°02'0 0.1
2017-May-14 13:28N 24°26' E 118°02'0 0.4
2017-May-14 12:58N 24°27' E 118°02'0 0.2
2017-May-14 12:25N 24°27' E 118°02'0 0.6
2017-May-14 12:00N 24°26' E 118°02'2 3.6
2017-May-14 11:30N 24°26' E 118°04'5 9.3
2017-May-14 11:00N 24°23' E 118°08'3 6.1
2017-May-14 10:30N 24°21' E 118°10'5 9.0
2017-May-14 10:00N 24°17' E 118°13'5 9.3
2017-May-14 09:31N 24°14' E 118°17'713.3
2017-May-14 09:00N 24°12' E 118°24'814.1
2017-May-14 08:26N 24°13' E 118°33'614.6
2017-May-14 08:00N 24°15' E 118°39'914.8
2017-May-14 07:23N 24°18' E 118°48'614.7
2017-May-14 06:58N 24°22' E 118°54'  
Track history (hours):
 
Tides and Currents Weather Stations Pressure Air Temp Water Temp Dewpoint Dewpoint Depression Visibility Wind Speed Wind Dir Waves Ship Positions

CMA CGM Columba

Last reported at 2017-May-15 19:20 UTC. Time now 2017-May-30 13:02 UTC.
Position N 22°20' E 114°07'.
Warning: this ship's position is 14 days out of date.

Length 363 m; draft 11.5 m.

Type: Ship (hazmat cat A). MMSI: 235077448.

Date/timePositionNaut miles runAvg speedWind from/ knotsBaromVisibWave heightAir tempDewpointWater temp
2017-May-15 19:20N 22°20' E 114°07'25113.6
2017-May-15 00:51N 24°03' E 118°16'1114.6
2017-May-15 00:07N 24°14' E 118°16'216.6
2017-May-15 00:00N 24°15' E 118°15'815.7
2017-May-14 23:30N 24°21' E 118°09'611.3
2017-May-14 23:01N 24°25' E 118°05'3 6.8
2017-May-14 22:31N 24°27' E 118°02'0 0.1
2017-May-14 22:00N 24°26' E 118°02'0 0.1
2017-May-14 21:27N 24°26' E 118°02'0 0.2
2017-May-14 20:57N 24°26' E 118°02'0 0.6
2017-May-14 20:30N 24°27' E 118°02'0 0.8
2017-May-14 20:00N 24°26' E 118°02'0 0.1
2017-May-14 19:30N 24°26' E 118°02'0 0.3
2017-May-14 19:00N 24°27' E 118°02'0 0.0
2017-May-14 18:30N 24°27' E 118°02'0 0.1
2017-May-14 18:00N 24°27' E 118°02'0 0.1
2017-May-14 17:30N 24°26' E 118°02'0 0.1
2017-May-14 17:00N 24°26' E 118°02'0 0.3
2017-May-14 16:30N 24°26' E 118°02'0 0.2
2017-May-14 16:00N 24°26' E 118°02'0 0.4
2017-May-14 15:30N 24°26' E 118°02'0 0.2
2017-May-14 15:00N 24°26' E 118°02'0 0.2
2017-May-14 14:28N 24°27' E 118°02'0 0.1
2017-May-14 13:28N 24°26' E 118°02'0 0.4
2017-May-14 12:58N 24°27' E 118°02'0 0.2
2017-May-14 12:25N 24°27' E 118°02'0 0.6
2017-May-14 12:00N 24°26' E 118°02'2 3.6
2017-May-14 11:30N 24°26' E 118°04'5 9.3
2017-May-14 11:00N 24°23' E 118°08'3 6.1
2017-May-14 10:30N 24°21' E 118°10'5 9.0
2017-May-14 10:00N 24°17' E 118°13'5 9.3
2017-May-14 09:31N 24°14' E 118°17'713.3
2017-May-14 09:00N 24°12' E 118°24'814.1
2017-May-14 08:26N 24°13' E 118°33'614.6
2017-May-14 08:00N 24°15' E 118°39'914.8
2017-May-14 07:23N 24°18' E 118°48'614.7
2017-May-14 06:58N 24°22' E 118°54'  

Dump ship's entire track history